KRDUKGEV

Guest
Details From KRDU - Raleigh Durham Intl
To KGEV - ASHE COUNTY
Flight Number -
Tags generated
Created
Modified
Stats Distance 132 nm / 245 km
Max Altitude 10,900 ft / 3,322 m
Waypoints 3
Social Downloads 0
Likes 0
Share VATSIM

Download

Looking for another format? Having issues loading an existing format? Contact us
Advertisement - Login to hide

Notes

Basic altitude profile: - Ascent Rate: 2500ft/min - Ascent Speed: 200kts - Cruise Altitude: 15000ft - Cruise Speed: 420kts - Descent Rate: 1500ft/min - Descent Speed: 250kts Options: - Use NATs: yes - Use PACOTS: yes - Use low airways: yes - Use high airways: yes

Route

KRDU INGON KGEV

ID Type Via Altitude Latitude Longitude Leg Dist Tot Dist Heading (true) Name
O KRDU APT - 0 ft / 0 m 35.87586˚ -78.78560˚ - 0 nm - Raleigh Durham Intl
INGON FIX - 10,900 ft / 3,322 m 36.21861˚ -80.29441˚ 76 nm 76 nm 286° / 285° -
O KGEV APT - 0 ft / 0 m 36.43245˚ -81.41970˚ 55 nm 132 nm 284° / 283° ASHE COUNTY

Altitude Profile

Advertisement - Login to hide

KRDU

Details ICAO KRDU (RDU)
Name Raleigh Durham Intl
Region United States
Timezone America/New_York (UTC-5.0)
Stats Elevation 435 ft / 133 m (AMSL)
Location 35.875863° -78.785598°
Runways 3
Magnetic Variation 9.185° W

METAR

KRDU 160351Z 29003KT 10SM FEW250 01/M04 A3010 RMK AO2 SLP197 T00061044

Decode

TAF

KRDU 152322Z 1600/1624 VRB04KT P6SM SCT250 FM161800 24007KT P6SM BKN250

Decode

Departure Runways

ID Width Length Bearing (true) Bearing (mag) Surface Threshold Offset Overrun Length
05L 150 ft / 46 m 10,002 ft / 3,049 m 45.02° 54.20° Concrete 0 ft / 0 m 200 ft / 61 m
05R 150 ft / 46 m 7,503 ft / 2,287 m 45.01° 54.19° Asphalt 0 ft / 0 m 200 ft / 61 m
14 100 ft / 30 m 3,571 ft / 1,088 m 135.28° 144.46° Asphalt 0 ft / 0 m 0 ft / 0 m
23L 150 ft / 46 m 7,503 ft / 2,287 m 225.02° 234.20° Asphalt 0 ft / 0 m 200 ft / 61 m
23R 150 ft / 46 m 10,002 ft / 3,049 m 225.03° 234.21° Concrete 0 ft / 0 m 200 ft / 61 m
32 100 ft / 30 m 3,571 ft / 1,088 m 315.28° 324.46° Asphalt 0 ft / 0 m 0 ft / 0 m

KGEV

Details ICAO KGEV
Name ASHE COUNTY
Region United States
Timezone America/New_York (UTC-5.0)
Stats Elevation 3,180 ft / 969 m (AMSL)
Location 36.432446° -81.419701°
Runways 1
Magnetic Variation 7.578° W

METAR

KGEV 160330Z AUTO 28010G22KT 190V320 10SM OVC023 M04/M09 A3000 RMK AO2 T10451095

Decode

TAF

Not found

Destination Runways

ID Width Length Bearing (true) Bearing (mag) Surface Threshold Offset Overrun Length
10 75 ft / 23 m 4,283 ft / 1,306 m 88.87° 96.45° Asphalt 0 ft / 0 m 0 ft / 0 m
28 75 ft / 23 m 4,283 ft / 1,306 m 268.88° 276.46° Asphalt 0 ft / 0 m 0 ft / 0 m

Popular Alternatives